sensor_id;sensor_type;location;lat;lon;timestamp;P1;durP1;ratioP1;P2;durP2;ratioP2
56269;SDS011;42176;43.240;27.880;2023-02-01T00:01:19;7.97;;;4.90;;
56269;SDS011;42176;43.240;27.880;2023-02-01T00:03:45;7.03;;;4.70;;
56269;SDS011;42176;43.240;27.880;2023-02-01T00:06:10;6.55;;;3.55;;
56269;SDS011;42176;43.240;27.880;2023-02-01T00:08:36;13.63;;;6.93;;
56269;SDS011;42176;43.240;27.880;2023-02-01T00:11:03;14.57;;;6.97;;
56269;SDS011;42176;43.240;27.880;2023-02-01T00:13:31;8.60;;;4.28;;
56269;SDS011;42176;43.240;27.880;2023-02-01T00:16:08;15.13;;;7.90;;
56269;SDS011;42176;43.240;27.880;2023-02-01T00:18:34;15.85;;;7.07;;
56269;SDS011;42176;43.240;27.880;2023-02-01T00:21:01;11.85;;;4.90;;
56269;SDS011;42176;43.240;27.880;2023-02-01T00:23:26;7.25;;;4.53;;
56269;SDS011;42176;43.240;27.880;2023-02-01T00:25:52;9.40;;;4.45;;
56269;SDS011;42176;43.240;27.880;2023-02-01T00:28:18;13.05;;;6.18;;
56269;SDS011;42176;43.240;27.880;2023-02-01T00:30:43;13.40;;;7.28;;
56269;SDS011;42176;43.240;27.880;2023-02-01T00:33:09;13.52;;;7.45;;
56269;SDS011;42176;43.240;27.880;2023-02-01T00:35:34;7.28;;;4.72;;
56269;SDS011;42176;43.240;27.880;2023-02-01T00:38:00;12.15;;;6.28;;
56269;SDS011;42176;43.240;27.880;2023-02-01T00:40:26;11.48;;;5.35;;
56269;SDS011;42176;43.240;27.880;2023-02-01T00:42:52;12.13;;;6.45;;
56269;SDS011;42176;43.240;27.880;2023-02-01T00:45:17;12.30;;;6.13;;
56269;SDS011;42176;43.240;27.880;2023-02-01T00:47:43;5.15;;;2.88;;
56269;SDS011;42176;43.240;27.880;2023-02-01T00:50:09;7.32;;;4.20;;
56269;SDS011;42176;43.240;27.880;2023-02-01T00:52:35;12.77;;;7.95;;
56269;SDS011;42176;43.240;27.880;2023-02-01T00:55:00;10.52;;;4.93;;
56269;SDS011;42176;43.240;27.880;2023-02-01T00:57:26;8.35;;;4.90;;
56269;SDS011;42176;43.240;27.880;2023-02-01T00:59:51;19.90;;;6.10;;
56269;SDS011;42176;43.240;27.880;2023-02-01T01:02:17;6.50;;;3.38;;
56269;SDS011;42176;43.240;27.880;2023-02-01T01:04:42;12.10;;;6.00;;
56269;SDS011;42176;43.240;27.880;2023-02-01T01:07:07;14.90;;;7.88;;
56269;SDS011;42176;43.240;27.880;2023-02-01T01:09:33;16.98;;;8.15;;
56269;SDS011;42176;43.240;27.880;2023-02-01T01:11:59;14.32;;;6.47;;
56269;SDS011;42176;43.240;27.880;2023-02-01T01:14:31;14.05;;;7.38;;
56269;SDS011;42176;43.240;27.880;2023-02-01T01:16:57;12.07;;;6.90;;
56269;SDS011;42176;43.240;27.880;2023-02-01T01:19:23;13.85;;;8.40;;
56269;SDS011;42176;43.240;27.880;2023-02-01T01:21:48;14.55;;;7.90;;
56269;SDS011;42176;43.240;27.880;2023-02-01T01:24:14;9.63;;;4.05;;
56269;SDS011;42176;43.240;27.880;2023-02-01T01:26:40;7.40;;;4.65;;
56269;SDS011;42176;43.240;27.880;2023-02-01T01:29:05;13.68;;;7.57;;
56269;SDS011;42176;43.240;27.880;2023-02-01T01:31:32;17.40;;;8.43;;
56269;SDS011;42176;43.240;27.880;2023-02-01T01:33:59;9.63;;;4.88;;
56269;SDS011;42176;43.240;27.880;2023-02-01T01:36:25;9.65;;;4.72;;
56269;SDS011;42176;43.240;27.880;2023-02-01T01:38:52;7.10;;;3.85;;
56269;SDS011;42176;43.240;27.880;2023-02-01T01:41:19;17.42;;;9.65;;
56269;SDS011;42176;43.240;27.880;2023-02-01T01:46:20;11.43;;;5.57;;
56269;SDS011;42176;43.240;27.880;2023-02-01T01:48:48;7.90;;;4.65;;
56269;SDS011;42176;43.240;27.880;2023-02-01T01:51:17;11.18;;;5.15;;
56269;SDS011;42176;43.240;27.880;2023-02-01T01:53:48;8.52;;;5.40;;
56269;SDS011;42176;43.240;27.880;2023-02-01T01:56:26;6.43;;;4.00;;
56269;SDS011;42176;43.240;27.880;2023-02-01T01:58:55;9.90;;;4.32;;
56269;SDS011;42176;43.240;27.880;2023-02-01T02:01:21;7.25;;;4.53;;
56269;SDS011;42176;43.240;27.880;2023-02-01T02:03:47;13.95;;;5.55;;
56269;SDS011;42176;43.240;27.880;2023-02-01T02:08:51;14.05;;;6.90;;
56269;SDS011;42176;43.240;27.880;2023-02-01T02:11:17;19.90;;;8.40;;
56269;SDS011;42176;43.240;27.880;2023-02-01T02:13:44;9.60;;;4.15;;
56269;SDS011;42176;43.240;27.880;2023-02-01T02:24:09;8.45;;;3.83;;
56269;SDS011;42176;43.240;27.880;2023-02-01T02:44:54;9.18;;;5.25;;
56269;SDS011;42176;43.240;27.880;2023-02-01T02:47:59;23.80;;;10.53;;
56269;SDS011;42176;43.240;27.880;2023-02-01T02:50:34;21.35;;;10.27;;
56269;SDS011;42176;43.240;27.880;2023-02-01T02:53:30;10.88;;;5.63;;
56269;SDS011;42176;43.240;27.880;2023-02-01T02:59:04;18.20;;;9.57;;
56269;SDS011;42176;43.240;27.880;2023-02-01T03:01:52;10.25;;;5.90;;
56269;SDS011;42176;43.240;27.880;2023-02-01T03:04:37;13.10;;;5.82;;
56269;SDS011;42176;43.240;27.880;2023-02-01T03:07:13;12.52;;;6.13;;
56269;SDS011;42176;43.240;27.880;2023-02-01T03:09:57;20.98;;;9.85;;
56269;SDS011;42176;43.240;27.880;2023-02-01T03:12:29;22.27;;;10.32;;
56269;SDS011;42176;43.240;27.880;2023-02-01T03:15:17;9.00;;;5.35;;
56269;SDS011;42176;43.240;27.880;2023-02-01T03:17:44;11.43;;;5.47;;
56269;SDS011;42176;43.240;27.880;2023-02-01T03:20:10;12.05;;;6.10;;
56269;SDS011;42176;43.240;27.880;2023-02-01T03:22:56;21.52;;;11.07;;
56269;SDS011;42176;43.240;27.880;2023-02-01T03:25:27;19.40;;;10.25;;
56269;SDS011;42176;43.240;27.880;2023-02-01T03:28:03;21.90;;;10.10;;
56269;SDS011;42176;43.240;27.880;2023-02-01T03:30:40;11.27;;;5.45;;
56269;SDS011;42176;43.240;27.880;2023-02-01T03:33:14;15.45;;;7.60;;
56269;SDS011;42176;43.240;27.880;2023-02-01T03:41:14;22.75;;;10.98;;
56269;SDS011;42176;43.240;27.880;2023-02-01T03:46:36;17.20;;;7.88;;
56269;SDS011;42176;43.240;27.880;2023-02-01T03:49:06;26.08;;;12.85;;
56269;SDS011;42176;43.240;27.880;2023-02-01T03:51:35;21.63;;;10.90;;
56269;SDS011;42176;43.240;27.880;2023-02-01T03:54:03;18.77;;;7.75;;
56269;SDS011;42176;43.240;27.880;2023-02-01T03:56:32;22.13;;;7.80;;
56269;SDS011;42176;43.240;27.880;2023-02-01T03:59:01;21.23;;;11.20;;
56269;SDS011;42176;43.240;27.880;2023-02-01T04:01:27;26.25;;;13.00;;
56269;SDS011;42176;43.240;27.880;2023-02-01T04:03:54;16.95;;;8.38;;
56269;SDS011;42176;43.240;27.880;2023-02-01T04:06:20;12.68;;;6.95;;
56269;SDS011;42176;43.240;27.880;2023-02-01T04:08:46;22.02;;;7.40;;
56269;SDS011;42176;43.240;27.880;2023-02-01T04:11:12;23.27;;;10.10;;
56269;SDS011;42176;43.240;27.880;2023-02-01T04:13:37;28.90;;;10.25;;
56269;SDS011;42176;43.240;27.880;2023-02-01T04:16:03;24.52;;;11.80;;
56269;SDS011;42176;43.240;27.880;2023-02-01T04:18:28;12.75;;;6.35;;
56269;SDS011;42176;43.240;27.880;2023-02-01T04:20:54;13.73;;;7.38;;
56269;SDS011;42176;43.240;27.880;2023-02-01T04:23:19;20.58;;;7.95;;
56269;SDS011;42176;43.240;27.880;2023-02-01T04:25:45;25.13;;;13.93;;
56269;SDS011;42176;43.240;27.880;2023-02-01T04:28:11;28.08;;;13.38;;
56269;SDS011;42176;43.240;27.880;2023-02-01T04:30:36;16.30;;;7.15;;
56269;SDS011;42176;43.240;27.880;2023-02-01T04:33:02;17.10;;;6.75;;
56269;SDS011;42176;43.240;27.880;2023-02-01T04:35:30;25.23;;;12.25;;
56269;SDS011;42176;43.240;27.880;2023-02-01T04:37:56;21.23;;;11.10;;
56269;SDS011;42176;43.240;27.880;2023-02-01T04:40:21;24.33;;;12.63;;
56269;SDS011;42176;43.240;27.880;2023-02-01T04:42:46;16.25;;;8.52;;
56269;SDS011;42176;43.240;27.880;2023-02-01T04:45:12;18.58;;;7.65;;
56269;SDS011;42176;43.240;27.880;2023-02-01T04:47:38;22.02;;;11.63;;
56269;SDS011;42176;43.240;27.880;2023-02-01T04:50:04;26.38;;;11.02;;
56269;SDS011;42176;43.240;27.880;2023-02-01T04:52:31;15.80;;;7.93;;
56269;SDS011;42176;43.240;27.880;2023-02-01T04:54:56;13.80;;;7.47;;
56269;SDS011;42176;43.240;27.880;2023-02-01T04:57:24;7.82;;;3.40;;
56269;SDS011;42176;43.240;27.880;2023-02-01T04:59:49;26.42;;;12.65;;
56269;SDS011;42176;43.240;27.880;2023-02-01T05:02:15;24.65;;;12.68;;
56269;SDS011;42176;43.240;27.880;2023-02-01T05:04:40;13.55;;;7.82;;
56269;SDS011;42176;43.240;27.880;2023-02-01T05:07:06;21.02;;;7.90;;
56269;SDS011;42176;43.240;27.880;2023-02-01T05:09:31;28.13;;;13.45;;
56269;SDS011;42176;43.240;27.880;2023-02-01T05:11:57;30.98;;;13.13;;
56269;SDS011;42176;43.240;27.880;2023-02-01T05:14:40;22.27;;;11.02;;
56269;SDS011;42176;43.240;27.880;2023-02-01T05:17:06;15.70;;;7.28;;
56269;SDS011;42176;43.240;27.880;2023-02-01T05:19:31;26.67;;;13.07;;
56269;SDS011;42176;43.240;27.880;2023-02-01T05:21:57;29.60;;;12.70;;
56269;SDS011;42176;43.240;27.880;2023-02-01T05:24:22;21.23;;;10.15;;
56269;SDS011;42176;43.240;27.880;2023-02-01T05:26:48;20.67;;;8.38;;
56269;SDS011;42176;43.240;27.880;2023-02-01T05:29:15;17.10;;;8.43;;
56269;SDS011;42176;43.240;27.880;2023-02-01T05:31:41;29.45;;;13.80;;
56269;SDS011;42176;43.240;27.880;2023-02-01T05:34:09;31.25;;;15.13;;
56269;SDS011;42176;43.240;27.880;2023-02-01T05:36:35;22.70;;;8.15;;
56269;SDS011;42176;43.240;27.880;2023-02-01T05:39:00;10.50;;;6.35;;
56269;SDS011;42176;43.240;27.880;2023-02-01T05:41:26;16.42;;;7.60;;
56269;SDS011;42176;43.240;27.880;2023-02-01T05:43:51;29.58;;;13.68;;
56269;SDS011;42176;43.240;27.880;2023-02-01T05:46:16;40.78;;;17.77;;
56269;SDS011;42176;43.240;27.880;2023-02-01T05:48:42;32.47;;;9.68;;
56269;SDS011;42176;43.240;27.880;2023-02-01T05:51:08;22.58;;;9.55;;
56269;SDS011;42176;43.240;27.880;2023-02-01T05:53:34;6.90;;;5.18;;
56269;SDS011;42176;43.240;27.880;2023-02-01T05:55:59;25.75;;;11.35;;
56269;SDS011;42176;43.240;27.880;2023-02-01T05:58:25;35.28;;;14.02;;
56269;SDS011;42176;43.240;27.880;2023-02-01T06:00:51;22.73;;;8.75;;
56269;SDS011;42176;43.240;27.880;2023-02-01T06:03:16;23.10;;;8.70;;
56269;SDS011;42176;43.240;27.880;2023-02-01T06:05:45;25.02;;;11.40;;
56269;SDS011;42176;43.240;27.880;2023-02-01T06:08:10;27.55;;;12.88;;
56269;SDS011;42176;43.240;27.880;2023-02-01T06:10:37;24.70;;;12.27;;
56269;SDS011;42176;43.240;27.880;2023-02-01T06:13:02;22.30;;;8.95;;
56269;SDS011;42176;43.240;27.880;2023-02-01T06:15:29;19.52;;;9.35;;
56269;SDS011;42176;43.240;27.880;2023-02-01T06:17:55;20.08;;;10.70;;
56269;SDS011;42176;43.240;27.880;2023-02-01T06:20:20;18.17;;;9.82;;
56269;SDS011;42176;43.240;27.880;2023-02-01T06:22:46;17.50;;;7.78;;
56269;SDS011;42176;43.240;27.880;2023-02-01T06:25:12;23.13;;;9.68;;
56269;SDS011;42176;43.240;27.880;2023-02-01T06:27:37;18.63;;;9.32;;
56269;SDS011;42176;43.240;27.880;2023-02-01T06:30:04;23.98;;;12.52;;
56269;SDS011;42176;43.240;27.880;2023-02-01T06:32:30;38.50;;;15.55;;
56269;SDS011;42176;43.240;27.880;2023-02-01T06:34:56;18.58;;;9.20;;
56269;SDS011;42176;43.240;27.880;2023-02-01T06:37:22;21.40;;;8.68;;
56269;SDS011;42176;43.240;27.880;2023-02-01T06:39:49;29.25;;;9.73;;
56269;SDS011;42176;43.240;27.880;2023-02-01T06:42:15;25.27;;;11.55;;
56269;SDS011;42176;43.240;27.880;2023-02-01T06:44:41;38.33;;;15.77;;
56269;SDS011;42176;43.240;27.880;2023-02-01T06:47:06;25.55;;;12.57;;
56269;SDS011;42176;43.240;27.880;2023-02-01T06:49:32;27.17;;;9.10;;
56269;SDS011;42176;43.240;27.880;2023-02-01T06:51:57;18.70;;;8.88;;
56269;SDS011;42176;43.240;27.880;2023-02-01T06:54:25;74.45;;;30.98;;
56269;SDS011;42176;43.240;27.880;2023-02-01T06:56:51;30.88;;;12.63;;
56269;SDS011;42176;43.240;27.880;2023-02-01T06:59:16;27.08;;;8.75;;
56269;SDS011;42176;43.240;27.880;2023-02-01T07:01:41;11.50;;;6.03;;
56269;SDS011;42176;43.240;27.880;2023-02-01T07:04:08;20.35;;;6.10;;
56269;SDS011;42176;43.240;27.880;2023-02-01T07:06:35;21.30;;;8.10;;
56269;SDS011;42176;43.240;27.880;2023-02-01T07:09:00;22.50;;;9.80;;
56269;SDS011;42176;43.240;27.880;2023-02-01T07:11:26;7.93;;;2.85;;
56269;SDS011;42176;43.240;27.880;2023-02-01T07:13:53;16.48;;;7.80;;
56269;SDS011;42176;43.240;27.880;2023-02-01T07:16:18;12.32;;;6.30;;
56269;SDS011;42176;43.240;27.880;2023-02-01T07:18:45;13.77;;;6.28;;
56269;SDS011;42176;43.240;27.880;2023-02-01T07:21:12;13.93;;;6.57;;
56269;SDS011;42176;43.240;27.880;2023-02-01T07:23:37;19.65;;;8.63;;
56269;SDS011;42176;43.240;27.880;2023-02-01T07:26:04;11.90;;;7.22;;
56269;SDS011;42176;43.240;27.880;2023-02-01T07:28:33;17.02;;;9.32;;
56269;SDS011;42176;43.240;27.880;2023-02-01T07:31:03;15.73;;;8.68;;
56269;SDS011;42176;43.240;27.880;2023-02-01T07:33:29;10.35;;;6.60;;
56269;SDS011;42176;43.240;27.880;2023-02-01T07:35:55;9.38;;;4.65;;
56269;SDS011;42176;43.240;27.880;2023-02-01T07:38:21;11.30;;;6.32;;
56269;SDS011;42176;43.240;27.880;2023-02-01T07:40:48;12.48;;;6.35;;
56269;SDS011;42176;43.240;27.880;2023-02-01T07:43:14;11.60;;;5.68;;
56269;SDS011;42176;43.240;27.880;2023-02-01T07:45:40;10.48;;;5.55;;
56269;SDS011;42176;43.240;27.880;2023-02-01T07:48:06;9.15;;;5.10;;
56269;SDS011;42176;43.240;27.880;2023-02-01T07:50:31;7.07;;;4.93;;
56269;SDS011;42176;43.240;27.880;2023-02-01T07:53:00;8.80;;;5.93;;
56269;SDS011;42176;43.240;27.880;2023-02-01T07:55:26;9.75;;;6.70;;
56269;SDS011;42176;43.240;27.880;2023-02-01T07:57:52;7.22;;;5.45;;
56269;SDS011;42176;43.240;27.880;2023-02-01T08:00:17;11.93;;;5.03;;
56269;SDS011;42176;43.240;27.880;2023-02-01T08:03:03;12.93;;;7.03;;
56269;SDS011;42176;43.240;27.880;2023-02-01T08:05:29;10.50;;;7.10;;
56269;SDS011;42176;43.240;27.880;2023-02-01T08:07:54;6.88;;;3.97;;
56269;SDS011;42176;43.240;27.880;2023-02-01T08:10:20;12.82;;;4.95;;
56269;SDS011;42176;43.240;27.880;2023-02-01T08:12:45;11.25;;;4.47;;
56269;SDS011;42176;43.240;27.880;2023-02-01T08:15:14;5.53;;;3.70;;
56269;SDS011;42176;43.240;27.880;2023-02-01T08:17:45;7.75;;;5.15;;
56269;SDS011;42176;43.240;27.880;2023-02-01T08:20:15;12.98;;;3.90;;
56269;SDS011;42176;43.240;27.880;2023-02-01T08:22:41;12.98;;;6.40;;
56269;SDS011;42176;43.240;27.880;2023-02-01T08:25:07;10.52;;;5.63;;
56269;SDS011;42176;43.240;27.880;2023-02-01T08:27:33;9.38;;;5.53;;
56269;SDS011;42176;43.240;27.880;2023-02-01T08:29:59;6.95;;;3.53;;
56269;SDS011;42176;43.240;27.880;2023-02-01T08:32:25;6.07;;;4.00;;
56269;SDS011;42176;43.240;27.880;2023-02-01T08:34:51;6.03;;;4.10;;
56269;SDS011;42176;43.240;27.880;2023-02-01T08:37:16;10.15;;;3.78;;
56269;SDS011;42176;43.240;27.880;2023-02-01T08:39:41;5.57;;;4.50;;
56269;SDS011;42176;43.240;27.880;2023-02-01T08:42:10;5.47;;;3.33;;
56269;SDS011;42176;43.240;27.880;2023-02-01T08:44:55;3.75;;;3.20;;
56269;SDS011;42176;43.240;27.880;2023-02-01T08:47:21;14.75;;;4.18;;
56269;SDS011;42176;43.240;27.880;2023-02-01T08:49:46;7.40;;;5.10;;
56269;SDS011;42176;43.240;27.880;2023-02-01T08:52:12;6.20;;;3.58;;
56269;SDS011;42176;43.240;27.880;2023-02-01T08:54:37;4.10;;;2.88;;
56269;SDS011;42176;43.240;27.880;2023-02-01T08:57:04;5.88;;;3.50;;
56269;SDS011;42176;43.240;27.880;2023-02-01T08:59:30;10.25;;;5.35;;
56269;SDS011;42176;43.240;27.880;2023-02-01T09:01:55;7.55;;;4.15;;
56269;SDS011;42176;43.240;27.880;2023-02-01T09:04:21;7.43;;;4.85;;
56269;SDS011;42176;43.240;27.880;2023-02-01T09:06:46;13.55;;;8.80;;
56269;SDS011;42176;43.240;27.880;2023-02-01T09:09:12;11.25;;;5.15;;
56269;SDS011;42176;43.240;27.880;2023-02-01T09:11:37;9.00;;;5.57;;
56269;SDS011;42176;43.240;27.880;2023-02-01T09:14:02;9.40;;;6.10;;
56269;SDS011;42176;43.240;27.880;2023-02-01T09:16:28;11.48;;;6.13;;
56269;SDS011;42176;43.240;27.880;2023-02-01T09:18:54;11.70;;;5.95;;
56269;SDS011;42176;43.240;27.880;2023-02-01T09:21:20;9.98;;;4.78;;
56269;SDS011;42176;43.240;27.880;2023-02-01T09:23:45;11.88;;;5.30;;
56269;SDS011;42176;43.240;27.880;2023-02-01T09:26:13;10.50;;;5.53;;
56269;SDS011;42176;43.240;27.880;2023-02-01T09:28:39;8.27;;;5.28;;
56269;SDS011;42176;43.240;27.880;2023-02-01T09:31:05;9.63;;;3.95;;
56269;SDS011;42176;43.240;27.880;2023-02-01T09:33:30;18.15;;;5.45;;
56269;SDS011;42176;43.240;27.880;2023-02-01T09:35:59;12.18;;;3.22;;
56269;SDS011;42176;43.240;27.880;2023-02-01T09:38:27;3.25;;;2.40;;
56269;SDS011;42176;43.240;27.880;2023-02-01T09:40:53;7.32;;;3.58;;
56269;SDS011;42176;43.240;27.880;2023-02-01T09:46:06;5.70;;;3.80;;
56269;SDS011;42176;43.240;27.880;2023-02-01T09:48:38;6.40;;;4.32;;
56269;SDS011;42176;43.240;27.880;2023-02-01T09:51:11;5.95;;;3.38;;
56269;SDS011;42176;43.240;27.880;2023-02-01T09:53:43;6.10;;;4.45;;
56269;SDS011;42176;43.240;27.880;2023-02-01T09:56:12;4.95;;;4.18;;
56269;SDS011;42176;43.240;27.880;2023-02-01T10:01:20;6.28;;;3.60;;
56269;SDS011;42176;43.240;27.880;2023-02-01T10:03:48;3.90;;;2.08;;
56269;SDS011;42176;43.240;27.880;2023-02-01T10:09:21;3.13;;;2.55;;
56269;SDS011;42176;43.240;27.880;2023-02-01T10:17:37;8.95;;;3.80;;
56269;SDS011;42176;43.240;27.880;2023-02-01T10:28:13;7.07;;;4.15;;
56269;SDS011;42176;43.240;27.880;2023-02-01T10:30:46;8.05;;;3.17;;
56269;SDS011;42176;43.240;27.880;2023-02-01T10:33:14;5.38;;;2.80;;
56269;SDS011;42176;43.240;27.880;2023-02-01T10:35:50;6.03;;;4.15;;
56269;SDS011;42176;43.240;27.880;2023-02-01T10:38:29;8.88;;;5.05;;
56269;SDS011;42176;43.240;27.880;2023-02-01T10:41:00;4.47;;;2.15;;
56269;SDS011;42176;43.240;27.880;2023-02-01T10:43:32;6.28;;;3.38;;
56269;SDS011;42176;43.240;27.880;2023-02-01T10:45:58;9.70;;;4.93;;
56269;SDS011;42176;43.240;27.880;2023-02-01T10:48:24;6.82;;;3.10;;
56269;SDS011;42176;43.240;27.880;2023-02-01T10:51:24;5.15;;;3.45;;
56269;SDS011;42176;43.240;27.880;2023-02-01T10:56:24;9.60;;;4.03;;
56269;SDS011;42176;43.240;27.880;2023-02-01T10:58:51;9.20;;;3.40;;
56269;SDS011;42176;43.240;27.880;2023-02-01T11:02:00;3.42;;;2.67;;
56269;SDS011;42176;43.240;27.880;2023-02-01T11:04:09;10.65;;;4.50;;
56269;SDS011;42176;43.240;27.880;2023-02-01T11:06:41;4.88;;;3.17;;
56269;SDS011;42176;43.240;27.880;2023-02-01T11:11:56;8.02;;;3.42;;
56269;SDS011;42176;43.240;27.880;2023-02-01T11:16:51;13.95;;;3.17;;
56269;SDS011;42176;43.240;27.880;2023-02-01T11:19:18;6.43;;;4.10;;
56269;SDS011;42176;43.240;27.880;2023-02-01T11:21:44;9.65;;;3.53;;
56269;SDS011;42176;43.240;27.880;2023-02-01T11:24:22;2.17;;;2.03;;
56269;SDS011;42176;43.240;27.880;2023-02-01T11:26:51;3.00;;;2.08;;
56269;SDS011;42176;43.240;27.880;2023-02-01T11:29:20;12.25;;;2.97;;
56269;SDS011;42176;43.240;27.880;2023-02-01T11:31:54;5.47;;;3.05;;
56269;SDS011;42176;43.240;27.880;2023-02-01T11:37:41;4.70;;;3.33;;
56269;SDS011;42176;43.240;27.880;2023-02-01T11:40:04;6.03;;;3.47;;
56269;SDS011;42176;43.240;27.880;2023-02-01T11:42:53;3.63;;;2.20;;
56269;SDS011;42176;43.240;27.880;2023-02-01T11:45:24;1.60;;;1.50;;
56269;SDS011;42176;43.240;27.880;2023-02-01T11:47:52;5.45;;;2.58;;
56269;SDS011;42176;43.240;27.880;2023-02-01T11:50:21;3.10;;;1.98;;
56269;SDS011;42176;43.240;27.880;2023-02-01T11:56:04;2.78;;;1.83;;
56269;SDS011;42176;43.240;27.880;2023-02-01T12:18:00;3.38;;;2.28;;
56269;SDS011;42176;43.240;27.880;2023-02-01T12:31:53;2.60;;;1.83;;
56269;SDS011;42176;43.240;27.880;2023-02-01T12:43:36;6.07;;;2.15;;
56269;SDS011;42176;43.240;27.880;2023-02-01T12:46:05;5.88;;;1.80;;
56269;SDS011;42176;43.240;27.880;2023-02-01T12:48:49;7.38;;;2.17;;
56269;SDS011;42176;43.240;27.880;2023-02-01T12:51:40;3.45;;;2.58;;
56269;SDS011;42176;43.240;27.880;2023-02-01T12:54:19;1.25;;;1.15;;
56269;SDS011;42176;43.240;27.880;2023-02-01T12:59:25;2.25;;;2.00;;
56269;SDS011;42176;43.240;27.880;2023-02-01T13:01:56;3.58;;;2.00;;
56269;SDS011;42176;43.240;27.880;2023-02-01T13:04:49;3.10;;;1.95;;
56269;SDS011;42176;43.240;27.880;2023-02-01T13:07:25;4.78;;;2.67;;
56269;SDS011;42176;43.240;27.880;2023-02-01T13:12:26;5.65;;;1.80;;
56269;SDS011;42176;43.240;27.880;2023-02-01T13:17:40;3.33;;;2.15;;
56269;SDS011;42176;43.240;27.880;2023-02-01T13:22:43;2.95;;;1.58;;
56269;SDS011;42176;43.240;27.880;2023-02-01T13:25:14;13.35;;;2.70;;
56269;SDS011;42176;43.240;27.880;2023-02-01T13:27:45;6.95;;;3.15;;
56269;SDS011;42176;43.240;27.880;2023-02-01T13:30:14;4.57;;;2.03;;
56269;SDS011;42176;43.240;27.880;2023-02-01T13:32:59;3.45;;;1.70;;
56269;SDS011;42176;43.240;27.880;2023-02-01T13:35:55;8.65;;;2.50;;
56269;SDS011;42176;43.240;27.880;2023-02-01T13:43:48;4.97;;;2.28;;
56269;SDS011;42176;43.240;27.880;2023-02-01T13:46:16;3.83;;;2.17;;
56269;SDS011;42176;43.240;27.880;2023-02-01T13:51:13;7.28;;;2.88;;
56269;SDS011;42176;43.240;27.880;2023-02-01T13:53:44;4.97;;;2.40;;
56269;SDS011;42176;43.240;27.880;2023-02-01T13:56:13;4.18;;;2.38;;
56269;SDS011;42176;43.240;27.880;2023-02-01T13:58:43;1.60;;;1.50;;
56269;SDS011;42176;43.240;27.880;2023-02-01T14:03:47;6.65;;;2.17;;
56269;SDS011;42176;43.240;27.880;2023-02-01T14:06:36;5.85;;;2.45;;
56269;SDS011;42176;43.240;27.880;2023-02-01T14:16:42;3.97;;;2.50;;
56269;SDS011;42176;43.240;27.880;2023-02-01T14:19:19;4.78;;;2.17;;
56269;SDS011;42176;43.240;27.880;2023-02-01T14:21:49;3.25;;;2.00;;
56269;SDS011;42176;43.240;27.880;2023-02-01T14:24:25;6.57;;;2.28;;
56269;SDS011;42176;43.240;27.880;2023-02-01T14:26:52;3.20;;;1.98;;
56269;SDS011;42176;43.240;27.880;2023-02-01T14:32:26;5.38;;;2.55;;
56269;SDS011;42176;43.240;27.880;2023-02-01T14:34:56;3.15;;;2.13;;
56269;SDS011;42176;43.240;27.880;2023-02-01T14:37:29;3.80;;;2.15;;
56269;SDS011;42176;43.240;27.880;2023-02-01T14:40:04;5.65;;;3.05;;
56269;SDS011;42176;43.240;27.880;2023-02-01T14:42:51;6.07;;;3.05;;
56269;SDS011;42176;43.240;27.880;2023-02-01T14:47:53;5.78;;;3.30;;
56269;SDS011;42176;43.240;27.880;2023-02-01T15:00:59;7.07;;;4.00;;
56269;SDS011;42176;43.240;27.880;2023-02-01T15:06:03;11.18;;;4.80;;
56269;SDS011;42176;43.240;27.880;2023-02-01T15:08:32;8.60;;;4.80;;
56269;SDS011;42176;43.240;27.880;2023-02-01T15:11:01;6.95;;;3.58;;
56269;SDS011;42176;43.240;27.880;2023-02-01T15:13:29;6.18;;;3.20;;
56269;SDS011;42176;43.240;27.880;2023-02-01T15:16:05;10.20;;;4.72;;
56269;SDS011;42176;43.240;27.880;2023-02-01T15:18:36;4.88;;;2.70;;
56269;SDS011;42176;43.240;27.880;2023-02-01T15:21:02;5.85;;;3.08;;
56269;SDS011;42176;43.240;27.880;2023-02-01T15:23:28;6.72;;;3.13;;
56269;SDS011;42176;43.240;27.880;2023-02-01T15:25:54;11.93;;;4.07;;
56269;SDS011;42176;43.240;27.880;2023-02-01T15:28:20;6.88;;;4.00;;
56269;SDS011;42176;43.240;27.880;2023-02-01T15:31:04;7.82;;;2.75;;
56269;SDS011;42176;43.240;27.880;2023-02-01T15:33:31;8.73;;;3.50;;
56269;SDS011;42176;43.240;27.880;2023-02-01T15:38:32;11.82;;;5.35;;
56269;SDS011;42176;43.240;27.880;2023-02-01T15:47:04;3.28;;;2.95;;
56269;SDS011;42176;43.240;27.880;2023-02-01T15:49:29;7.95;;;4.97;;
56269;SDS011;42176;43.240;27.880;2023-02-01T15:51:58;7.13;;;5.22;;
56269;SDS011;42176;43.240;27.880;2023-02-01T15:57:02;10.50;;;6.18;;
56269;SDS011;42176;43.240;27.880;2023-02-01T15:59:40;11.50;;;7.15;;
56269;SDS011;42176;43.240;27.880;2023-02-01T16:02:50;17.00;;;6.35;;
56269;SDS011;42176;43.240;27.880;2023-02-01T16:08:14;21.20;;;10.25;;
56269;SDS011;42176;43.240;27.880;2023-02-01T16:10:43;18.65;;;10.80;;
56269;SDS011;42176;43.240;27.880;2023-02-01T16:13:12;22.27;;;12.05;;
56269;SDS011;42176;43.240;27.880;2023-02-01T16:15:39;37.47;;;13.25;;
56269;SDS011;42176;43.240;27.880;2023-02-01T16:18:05;23.48;;;13.13;;
56269;SDS011;42176;43.240;27.880;2023-02-01T16:20:33;27.67;;;12.88;;
56269;SDS011;42176;43.240;27.880;2023-02-01T16:23:00;25.88;;;11.95;;
56269;SDS011;42176;43.240;27.880;2023-02-01T16:25:26;24.45;;;12.10;;
56269;SDS011;42176;43.240;27.880;2023-02-01T16:27:52;20.90;;;11.07;;
56269;SDS011;42176;43.240;27.880;2023-02-01T16:30:17;21.65;;;10.35;;
56269;SDS011;42176;43.240;27.880;2023-02-01T16:32:48;21.27;;;10.75;;
56269;SDS011;42176;43.240;27.880;2023-02-01T16:35:22;21.95;;;10.80;;
56269;SDS011;42176;43.240;27.880;2023-02-01T16:37:50;18.17;;;10.15;;
56269;SDS011;42176;43.240;27.880;2023-02-01T16:40:16;15.75;;;8.90;;
56269;SDS011;42176;43.240;27.880;2023-02-01T16:42:43;16.33;;;8.40;;
56269;SDS011;42176;43.240;27.880;2023-02-01T16:45:12;15.25;;;7.18;;
56269;SDS011;42176;43.240;27.880;2023-02-01T16:47:38;11.52;;;7.10;;
56269;SDS011;42176;43.240;27.880;2023-02-01T16:50:05;21.02;;;10.55;;
56269;SDS011;42176;43.240;27.880;2023-02-01T16:52:41;17.17;;;10.57;;
56269;SDS011;42176;43.240;27.880;2023-02-01T16:55:14;20.13;;;9.15;;
56269;SDS011;42176;43.240;27.880;2023-02-01T16:57:44;15.82;;;9.18;;
56269;SDS011;42176;43.240;27.880;2023-02-01T17:00:11;46.97;;;16.13;;
56269;SDS011;42176;43.240;27.880;2023-02-01T17:02:38;32.35;;;13.93;;
56269;SDS011;42176;43.240;27.880;2023-02-01T17:05:04;18.85;;;9.82;;
56269;SDS011;42176;43.240;27.880;2023-02-01T17:07:31;23.20;;;9.40;;
56269;SDS011;42176;43.240;27.880;2023-02-01T17:09:56;18.25;;;9.23;;
56269;SDS011;42176;43.240;27.880;2023-02-01T17:12:26;23.05;;;12.85;;
56269;SDS011;42176;43.240;27.880;2023-02-01T17:17:20;17.27;;;9.43;;
56269;SDS011;42176;43.240;27.880;2023-02-01T17:19:46;15.55;;;6.20;;
56269;SDS011;42176;43.240;27.880;2023-02-01T17:22:16;13.40;;;7.68;;
56269;SDS011;42176;43.240;27.880;2023-02-01T17:24:43;20.20;;;9.18;;
56269;SDS011;42176;43.240;27.880;2023-02-01T17:27:08;15.57;;;9.35;;
56269;SDS011;42176;43.240;27.880;2023-02-01T17:29:34;36.95;;;14.95;;
56269;SDS011;42176;43.240;27.880;2023-02-01T17:31:59;25.88;;;11.15;;
56269;SDS011;42176;43.240;27.880;2023-02-01T17:34:25;21.40;;;11.52;;
56269;SDS011;42176;43.240;27.880;2023-02-01T17:36:51;36.83;;;15.88;;